Rondonopolis, Brazil
Current Conditions -  °F | °C
As of 6:00 PM on Tuesday 27 Jan 2015 (Local Time) from SBCY Reporting Station
Broken Clouds Broken Clouds  
Wind Chill: 81°   Ceiling: 10000
Heat Index: 85°   Visibility: 6mi
Dew Point: 73°   Wind: 8mph
Humidity: 79%   Direction: 340°NNW
Pressure: 29.83"   Gusts: NA
Location:  16.47°S, 54.64°W
Report Text: SBCY 272100Z 34007KT 9999 FEW020 BKN100 27/23 Q1010
Loading
Personal Weather Stations






























Interactive Weather Map New forecast layout! Learn more

10-Day Weather Forecast

Advertisements
Track Severe Weather on mobile